.
WxDataArchive / Data Records for 2009-12-09
2009-12-08 December 2009 2009-12-10

Data Records for Wednesday, 09 December 2009

Time	Temp	Chill	HIndex	Humid	Dewpt	 Wind 	HiWind	WindDir	Rain 	Barom 
-----	----	-----	------	-----	-----	------	------	-------	-----	----- 
00:00	33.2	29.5	33.2	95	31.9	4	10	112	0.00	29.410 
00:05	33.2	28.5	33.2	95	31.9	5	11	112	0.00	29.410 
00:10	33.2	28.5	33.2	95	31.9	5	10	112	0.00	29.410 
00:15	33.2	27.7	33.2	95	31.9	6	14	112	0.00	29.374 
00:20	33.2	27.7	33.2	95	31.9	6	12	112	0.00	29.374 
00:25	33.2	28.5	33.2	95	31.9	5	12	112	0.00	29.374 
00:30	33.2	27.7	33.2	95	31.9	6	12	112	0.00	29.346 
00:35	33.2	27.7	33.2	95	31.9	6	11	90	0.00	29.346 
00:40	33.4	27.9	33.4	96	32.4	6	13	90	0.00	29.346 
00:45	33.2	27.7	33.2	96	32.2	6	13	90	0.00	29.320 
00:50	33.4	27.9	33.4	96	32.4	6	14	112	0.00	29.320 
00:55	33.4	29.7	33.4	96	32.4	4	9	90	0.00	29.320 
01:00	33.4	28.7	33.4	96	32.4	5	10	90	0.00	29.303 
01:05	33.4	28.7	33.4	96	32.4	5	10	90	0.00	29.303 
01:10	33.4	28.7	33.4	96	32.4	5	12	90	0.00	29.303 
01:15	33.5	28.8	33.5	96	32.5	5	11	90	0.00	29.278 
01:20	33.5	28.8	33.5	96	32.5	5	10	90	0.00	29.278 
01:25	33.5	29.8	33.5	96	32.5	4	9	112	0.00	29.278 
01:30	33.5	29.8	33.5	96	32.5	4	10	112	0.00	29.253 
01:35	33.7	29.1	33.7	96	32.7	5	10	112	0.00	29.253 
01:40	33.7	29.1	33.7	96	32.7	5	10	112	0.00	29.253 
01:45	33.8	28.4	33.8	96	32.8	6	12	90	0.00	29.230 
01:50	33.8	29.2	33.8	96	32.8	5	11	90	0.00	29.230 
01:55	33.8	30.2	33.8	96	32.8	4	9	112	0.00	29.230 
02:00	34.0	29.4	34.0	96	33.0	5	9	112	0.00	29.213 
02:05	34.0	29.4	34.0	96	33.0	5	12	90	0.00	29.213 
02:10	34.0	30.4	34.0	96	33.0	4	10	112	0.00	29.213 
02:15	34.1	30.5	34.1	96	33.1	4	11	90	0.00	29.198 
02:20	34.1	34.1	34.1	96	33.1	3	7	90	0.00	29.198 
02:25	34.1	30.5	34.1	96	33.1	4	8	112	0.00	29.198 
02:30	34.1	30.5	34.1	96	33.1	4	9	112	0.00	29.168 
02:35	34.3	30.7	34.3	96	33.3	4	11	90	0.00	29.168 
02:40	34.3	29.8	34.3	96	33.3	5	11	112	0.00	29.168 
02:45	34.4	30.8	34.4	96	33.4	4	10	112	0.00	29.145 
02:50	34.6	30.1	34.6	96	33.6	5	10	90	0.00	29.145 
02:55	34.7	31.2	34.7	96	33.7	4	9	90	0.00	29.145 
03:00	34.7	34.7	34.7	96	33.7	3	9	112	0.00	29.120 
03:05	34.7	34.7	34.7	96	33.7	2	5	90	0.00	29.120 
03:10	34.9	34.9	34.9	96	33.9	2	5	90	0.00	29.120 
03:15	35.0	35.0	35.0	96	34.0	2	3	112	0.00	29.115 
03:20	35.0	35.0	35.0	96	34.0	2	4	112	0.00	29.115 
03:25	35.2	35.2	35.2	96	34.2	2	4	112	0.00	29.115 
03:30	35.3	35.3	35.3	96	34.3	2	6	90	0.00	29.092 
03:35	35.5	35.5	35.5	96	34.5	2	4	112	0.00	29.092 
03:40	35.5	35.5	35.5	96	34.5	1	3	112	0.00	29.092 
03:45	35.6	35.6	35.6	96	34.6	1	2	112	0.00	29.088 
03:50	35.6	35.6	35.6	96	34.6	1	3	112	0.00	29.088 
03:55	35.6	35.6	35.6	96	34.6	1	2	112	0.00	29.088 
04:00	35.6	35.6	35.6	96	34.6	1	3	112	0.00	29.066 
04:05	35.8	35.8	35.8	96	34.8	1	3	112	0.00	29.066 
04:10	35.8	35.8	35.8	96	34.8	0	1	112	0.00	29.066 
04:15	35.8	35.8	35.8	96	34.8	0	2	112	0.00	29.058 
04:20	35.8	35.8	35.8	96	34.8	0	1	112	0.00	29.058 
04:25	35.8	35.8	35.8	97	35.0	0	1	112	0.00	29.058 
04:30	35.8	35.8	35.8	97	35.0	0	0	---	0.00	29.059 
04:35	35.8	35.8	35.8	97	35.0	0	0	---	0.00	29.059 
04:40	35.8	35.8	35.8	96	34.8	0	0	---	0.00	29.059 
04:45	35.6	35.6	35.6	96	34.6	0	0	---	0.00	29.057 
04:50	35.6	35.6	35.6	96	34.6	0	0	---	0.00	29.057 
04:55	35.5	35.5	35.5	97	34.7	0	0	---	0.00	29.057 
05:00	35.5	35.5	35.5	97	34.7	0	0	---	0.00	29.046 
05:05	35.5	35.5	35.5	96	34.5	0	0	---	0.00	29.046 
05:10	35.8	35.8	35.8	97	35.0	0	0	---	0.00	29.046 
05:15	36.2	36.2	36.2	97	35.4	0	0	---	0.00	29.045 
05:20	36.9	36.9	36.9	97	36.1	0	2	112	0.00	29.045 
05:25	37.8	37.8	37.8	97	37.0	0	2	270	0.01	29.045 
05:30	39.1	39.1	39.1	97	38.3	1	4	270	0.00	29.037 
05:35	40.2	40.2	40.2	97	39.4	2	4	248	0.00	29.037 
05:40	41.3	41.3	41.3	97	40.5	3	14	248	0.01	29.037 
05:45	42.2	39.1	42.2	97	41.4	5	17	248	0.01	29.040 
05:50	42.3	42.3	42.3	97	41.5	3	7	248	0.00	29.040 
05:55	42.6	40.3	42.6	97	41.8	4	13	270	0.01	29.040 
06:00	42.5	39.4	42.5	97	41.7	5	13	248	0.00	29.047 
06:05	42.2	39.1	42.2	97	41.4	5	14	248	0.01	29.047 
06:10	42.1	37.7	42.1	97	41.3	7	16	270	0.00	29.047 
06:15	41.9	39.5	41.9	97	41.1	4	10	248	0.00	29.051 
06:20	41.8	37.9	41.8	97	41.0	6	12	248	0.01	29.051 
06:25	41.6	38.4	41.6	97	40.8	5	14	248	0.00	29.051 
06:30	41.3	38.8	41.3	97	40.5	4	10	270	0.00	29.051 
06:35	41.3	37.3	41.3	97	40.5	6	11	248	0.00	29.051 
06:40	41.3	38.0	41.3	97	40.5	5	13	248	0.00	29.051 
06:45	41.3	38.8	41.3	96	40.2	4	10	270	0.01	29.055 
06:50	41.2	41.2	41.2	96	40.1	3	9	270	0.00	29.055 
06:55	41.2	38.7	41.2	96	40.1	4	14	225	0.00	29.055 
07:00	41.1	41.1	41.1	96	40.0	2	9	270	0.00	29.057 
07:05	41.1	37.8	41.1	95	39.8	5	11	248	0.00	29.057 
07:10	41.1	41.1	41.1	95	39.8	2	10	248	0.00	29.057 
07:15	41.1	38.6	41.1	94	39.5	4	10	270	0.00	29.052 
07:20	40.9	40.9	40.9	94	39.3	3	9	248	0.00	29.052 
07:25	40.9	40.9	40.9	93	39.0	3	8	248	0.00	29.052 
07:30	40.9	40.9	40.9	92	38.8	3	10	248	0.00	29.043 
07:35	40.8	40.8	40.8	92	38.7	2	9	248	0.00	29.043 
07:40	40.8	40.8	40.8	91	38.4	2	5	225	0.00	29.043 
07:45	40.6	40.6	40.6	91	38.2	2	9	248	0.00	29.038 
07:50	40.6	40.6	40.6	90	37.9	2	8	225	0.00	29.038 
07:55	40.5	40.5	40.5	90	37.8	3	7	248	0.00	29.038 
08:00	40.3	40.3	40.3	90	37.6	3	7	248	0.00	29.036 
08:05	40.3	40.3	40.3	89	37.3	2	7	248	0.00	29.036 
08:10	40.2	40.2	40.2	89	37.2	3	11	248	0.00	29.036 
08:15	40.2	40.2	40.2	90	37.5	3	9	248	0.00	29.036 
08:20	40.1	40.1	40.1	90	37.4	1	3	248	0.01	29.036 
08:25	39.9	39.9	39.9	90	37.2	1	4	248	0.00	29.036 
08:30	39.9	39.9	39.9	91	37.5	2	7	248	0.00	29.039 
08:35	39.9	39.9	39.9	91	37.5	3	9	248	0.00	29.039 
08:40	39.6	36.9	39.6	91	37.2	4	13	248	0.00	29.039 
08:45	39.5	35.9	39.5	90	36.8	5	13	270	0.00	29.039 
08:50	39.5	36.7	39.5	88	36.2	4	13	248	0.00	29.039 
08:55	39.5	35.9	39.5	86	35.7	5	14	248	0.00	29.039 
09:00	39.5	36.7	39.5	85	35.4	4	12	248	0.00	29.045 
09:05	39.3	35.7	39.3	85	35.2	5	15	248	0.00	29.045 
09:10	38.9	36.0	38.9	86	35.1	4	9	270	0.00	29.045 
09:15	38.6	35.7	38.6	87	35.1	4	12	248	0.00	29.052 
09:20	38.3	34.5	38.3	87	34.8	5	13	270	0.00	29.052 
09:25	38.0	32.7	38.0	88	34.8	7	15	248	0.01	29.052 
09:30	37.8	33.1	37.8	88	34.6	6	18	248	0.00	29.058 
09:35	37.6	37.6	37.6	88	34.4	3	7	248	0.00	29.058 
09:40	37.5	34.4	37.5	89	34.6	4	9	248	0.00	29.058 
09:45	37.3	34.2	37.3	90	34.6	4	12	248	0.00	29.070 
09:50	37.3	33.3	37.3	90	34.6	5	13	248	0.00	29.070 
09:55	37.3	32.5	37.3	90	34.6	6	16	248	0.00	29.070 
10:00	37.2	32.4	37.2	89	34.3	6	15	270	0.00	29.072 
10:05	37.0	30.9	37.0	86	33.2	8	18	270	0.00	29.072 
10:10	37.3	31.9	37.3	83	32.6	7	19	248	0.00	29.072 
10:15	37.3	34.2	37.3	82	32.3	4	11	270	0.00	29.084 
10:20	37.2	31.8	37.2	81	31.9	7	19	270	0.00	29.084 
10:25	37.0	33.9	37.0	81	31.7	4	10	270	0.00	29.084 
10:30	36.9	32.1	36.9	80	31.3	6	18	248	0.01	29.091 
10:35	36.6	31.7	36.6	80	31.0	6	14	248	0.00	29.091 
10:40	36.5	30.9	36.5	80	30.9	7	27	270	0.00	29.091 
10:45	36.3	31.4	36.3	80	30.7	6	15	248	0.00	29.103 
10:50	36.3	32.1	36.3	80	30.7	5	16	248	0.00	29.103 
10:55	36.3	31.4	36.3	78	30.1	6	16	248	0.00	29.103 
11:00	36.3	30.7	36.3	76	29.5	7	17	270	0.00	29.103 
11:05	36.3	30.7	36.3	76	29.5	7	18	248	0.00	29.103 
11:10	36.0	28.7	36.0	76	29.2	10	24	270	0.00	29.103 
11:15	35.9	29.6	35.9	77	29.4	8	21	270	0.00	29.113 
11:20	35.8	30.1	35.8	77	29.3	7	14	248	0.00	29.113 
11:25	35.6	30.5	35.6	78	29.4	6	16	248	0.00	29.113 
11:30	35.5	28.6	35.5	78	29.3	9	24	248	0.00	29.117 
11:35	35.2	30.0	35.2	83	30.6	6	15	248	0.00	29.117 
11:40	34.6	27.5	34.6	82	29.7	9	21	248	0.00	29.117 
11:45	34.4	27.8	34.4	83	29.8	8	16	270	0.00	29.122 
11:50	34.3	27.6	34.3	81	29.1	8	21	270	0.00	29.122 
11:55	34.3	27.6	34.3	81	29.1	8	17	270	0.00	29.122 
12:00	34.1	28.0	34.1	80	28.6	7	16	270	0.00	29.123 
12:05	34.0	27.9	34.0	79	28.2	7	17	248	0.00	29.123 
12:10	33.5	27.3	33.5	80	28.0	7	15	248	0.00	29.123 
12:15	32.4	26.0	32.4	84	28.1	7	19	270	0.00	29.133 
12:20	31.6	24.4	31.6	84	27.3	8	21	270	0.00	29.133 
12:25	31.3	23.4	31.3	86	27.6	9	19	270	0.00	29.133 
12:30	31.0	24.3	31.0	87	27.6	7	15	270	0.00	29.135 
12:35	30.9	22.4	30.9	88	27.8	10	24	270	0.00	29.135 
12:40	31.0	23.6	31.0	87	27.6	8	16	270	0.00	29.135 
12:45	31.0	23.0	31.0	84	26.7	9	26	248	0.00	29.142 
12:50	31.3	23.4	31.3	79	25.6	9	16	270	0.00	29.142 
12:55	31.6	23.8	31.6	77	25.2	9	21	270	0.00	29.142 
13:00	31.9	25.4	31.9	76	25.2	7	19	248	0.00	29.143 
13:05	31.8	23.5	31.8	77	25.4	10	21	270	0.00	29.143 
13:10	31.6	24.4	31.6	78	25.5	8	17	270	0.00	29.143 
13:15	31.2	23.9	31.2	80	25.8	8	16	270	0.00	29.152 
13:20	30.9	22.9	30.9	78	24.9	9	17	248	0.00	29.152 
13:25	30.9	22.9	30.9	73	23.3	9	20	270	0.00	29.152 
13:30	31.2	24.5	31.2	70	22.6	7	30	270	0.00	29.157 
13:35	30.9	22.4	30.9	69	21.9	10	30	270	0.00	29.157 
13:40	30.4	22.3	30.4	69	21.5	9	17	270	0.00	29.157 
13:45	30.3	23.4	30.3	72	22.4	7	21	270	0.00	29.171 
13:50	30.0	23.8	30.0	74	22.7	6	17	270	0.00	29.171 
13:55	29.7	22.0	29.7	76	23.1	8	16	270	0.00	29.171 
14:00	29.5	20.6	29.5	77	23.2	10	25	248	0.00	29.180 
14:05	29.3	19.9	29.3	77	23.0	11	24	270	0.00	29.180 
14:10	29.0	21.2	29.0	77	22.7	8	22	270	0.00	29.180 
14:15	28.4	19.8	28.4	77	22.1	9	21	270	0.00	29.191 
14:20	27.9	18.1	27.9	74	20.7	11	23	270	0.00	29.191 
14:25	27.6	18.3	27.6	73	20.1	10	17	270	0.00	29.191 
14:30	27.5	18.7	27.5	73	20.0	9	20	270	0.00	29.215 
14:35	27.3	20.6	27.3	75	20.4	6	15	270	0.00	29.215 
14:40	27.3	18.5	27.3	75	20.4	9	20	270	0.00	29.215 
14:45	27.2	19.7	27.2	75	20.3	7	22	270	0.00	29.225 
14:50	26.7	16.1	26.7	72	18.9	12	33	270	0.00	29.225 
14:55	26.3	15.6	26.3	71	18.2	12	33	270	0.00	29.225 
15:00	26.0	16.3	26.0	72	18.2	10	23	270	0.00	29.243 
15:05	25.8	15.0	25.8	73	18.4	12	28	270	0.00	29.243 
15:10	25.8	16.0	25.8	74	18.7	10	18	248	0.00	29.243 
15:15	25.8	17.3	25.8	74	18.7	8	19	270	0.00	29.248 
15:20	25.7	16.5	25.7	73	18.3	9	21	248	0.00	29.248 
15:25	25.7	15.4	25.7	73	18.3	11	22	270	0.00	29.248 
15:30	25.6	16.4	25.6	74	18.5	9	22	270	0.00	29.270 
15:35	25.6	16.4	25.6	74	18.5	9	26	248	0.00	29.270 
15:40	25.4	15.5	25.4	73	18.0	10	25	248	0.00	29.270 
15:45	25.4	15.5	25.4	73	18.0	10	22	270	0.00	29.286 
15:50	25.4	17.5	25.4	74	18.3	7	15	270	0.00	29.286 
15:55	25.4	16.1	25.4	73	18.0	9	22	270	0.00	29.286 
16:00	25.3	14.9	25.3	74	18.2	11	20	270	0.00	29.303 
16:05	25.1	15.8	25.1	74	18.0	9	19	270	0.00	29.303 
16:10	25.1	16.4	25.1	74	18.0	8	17	248	0.00	29.303 
16:15	25.0	17.1	25.0	74	17.9	7	20	270	0.00	29.326 
16:20	24.8	17.7	24.8	75	18.0	6	15	270	0.00	29.326 
16:25	24.7	16.0	24.7	75	17.9	8	15	270	0.00	29.326 
16:30	24.5	15.7	24.5	76	18.0	8	19	248	0.00	29.340 
16:35	24.4	14.3	24.4	75	17.6	10	24	270	0.00	29.340 
16:40	24.2	15.3	24.2	75	17.4	8	20	270	0.00	29.340 
16:45	24.2	16.1	24.2	75	17.4	7	15	270	0.00	29.362 
16:50	24.2	16.1	24.2	76	17.7	7	17	248	0.00	29.362 
16:55	24.2	16.1	24.2	76	17.7	7	16	270	0.00	29.362 
17:00	24.1	16.0	24.1	76	17.7	7	16	270	0.00	29.379 
17:05	23.9	15.0	23.9	76	17.5	8	19	270	0.00	29.379 
17:10	23.8	14.2	23.8	75	17.1	9	20	270	0.00	29.379 
17:15	23.8	14.9	23.8	74	16.7	8	16	270	0.00	29.381 
17:20	23.6	13.9	23.6	74	16.6	9	18	270	0.00	29.381 
17:25	23.6	16.2	23.6	75	16.9	6	12	270	0.00	29.381 
17:30	23.5	12.6	23.5	75	16.8	11	25	270	0.00	29.396 
17:35	23.5	13.2	23.5	75	16.8	10	24	270	0.00	29.396 
17:40	23.2	13.4	23.2	76	16.8	9	27	270	0.00	29.396 
17:45	23.0	13.9	23.0	75	16.3	8	18	248	0.00	29.415 
17:50	22.9	15.4	22.9	76	16.5	6	14	248	0.00	29.415 
17:55	22.7	12.2	22.7	75	16.0	10	20	270	0.00	29.415 
18:00	22.5	14.0	22.5	75	15.8	7	16	270	0.00	29.431 
18:05	22.5	14.0	22.5	75	15.8	7	23	270	0.00	29.431 
18:10	22.4	14.8	22.4	75	15.7	6	14	270	0.00	29.431 
18:15	22.4	12.5	22.4	75	15.7	9	23	270	0.00	29.447 
18:20	22.2	12.9	22.2	75	15.5	8	17	248	0.00	29.447 
18:25	22.2	11.6	22.2	74	15.2	10	21	248	0.00	29.447 
18:30	22.1	13.6	22.1	75	15.4	7	14	270	0.00	29.456 
18:35	21.9	15.2	21.9	76	15.5	5	11	248	0.00	29.456 
18:40	21.8	12.4	21.8	76	15.4	8	18	248	0.00	29.456 
18:45	21.8	12.4	21.8	77	15.7	8	22	270	0.00	29.471 
18:50	21.6	12.2	21.6	77	15.5	8	23	270	0.00	29.471 
18:55	21.4	12.7	21.4	77	15.3	7	19	270	0.00	29.471 
19:00	21.4	13.6	21.4	77	15.3	6	16	270	0.00	29.475 
19:05	21.4	14.6	21.4	77	15.3	5	12	248	0.00	29.475 
19:10	21.3	14.5	21.3	77	15.2	5	11	248	0.00	29.475 
19:15	21.3	12.6	21.3	77	15.2	7	16	248	0.00	29.492 
19:20	21.3	12.6	21.3	77	15.2	7	17	270	0.00	29.492 
19:25	21.3	13.5	21.3	77	15.2	6	16	270	0.00	29.492 
19:30	21.1	12.4	21.1	77	15.0	7	19	248	0.00	29.494 
19:35	21.1	12.4	21.1	77	15.0	7	19	270	0.00	29.494 
19:40	21.0	12.2	21.0	77	14.9	7	15	270	0.00	29.494 
19:45	21.0	11.5	21.0	78	15.2	8	20	270	0.00	29.509 
19:50	20.8	11.2	20.8	77	14.7	8	17	270	0.00	29.509 
19:55	20.6	13.7	20.6	77	14.6	5	17	270	0.00	29.509 
20:00	20.5	10.1	20.5	76	14.2	9	20	270	0.00	29.522 
20:05	20.5	11.6	20.5	74	13.6	7	22	270	0.00	29.522 
20:10	20.5	11.6	20.5	73	13.2	7	18	248	0.00	29.522 
20:15	20.3	12.3	20.3	74	13.4	6	17	248	0.00	29.523 
20:20	20.3	10.6	20.3	74	13.4	8	18	248	0.00	29.523 
20:25	20.3	11.4	20.3	74	13.4	7	16	270	0.00	29.523 
20:30	20.2	12.2	20.2	74	13.3	6	14	248	0.00	29.530 
20:35	20.2	11.3	20.2	74	13.3	7	15	270	0.00	29.530 
20:40	20.0	10.2	20.0	73	12.8	8	22	270	0.00	29.530 
20:45	19.9	10.1	19.9	72	12.4	8	25	270	0.00	29.540 
20:50	19.7	12.6	19.7	73	12.5	5	12	270	0.00	29.540 
20:55	19.5	10.4	19.5	74	12.6	7	19	248	0.00	29.540 
21:00	19.5	12.4	19.5	75	12.9	5	13	270	0.00	29.543 
21:05	19.4	11.2	19.4	75	12.8	6	15	248	0.00	29.543 
21:10	19.4	19.4	19.4	77	13.4	3	10	248	0.00	29.543 
21:15	19.4	12.3	19.4	77	13.4	5	15	270	0.00	29.555 
21:20	19.2	13.3	19.2	78	13.5	4	9	270	0.00	29.555 
21:25	18.9	10.6	18.9	77	12.9	6	19	248	0.00	29.555 
21:30	18.8	10.5	18.8	77	12.8	6	14	270	0.00	29.565 
21:35	18.6	9.3	18.6	76	12.3	7	16	248	0.00	29.565 
21:40	18.6	9.3	18.6	75	12.0	7	14	270	0.00	29.565 
21:45	18.6	11.3	18.6	76	12.3	5	15	248	0.00	29.574 
21:50	18.6	11.3	18.6	77	12.6	5	12	248	0.00	29.574 
21:55	18.4	10.0	18.4	77	12.4	6	17	248	0.00	29.574 
22:00	18.3	9.0	18.3	77	12.3	7	17	270	0.00	29.592 
22:05	18.1	8.7	18.1	77	12.1	7	23	270	0.00	29.592 
22:10	18.0	8.6	18.0	77	12.0	7	17	248	0.00	29.592 
22:15	17.8	8.4	17.8	76	11.5	7	19	270	0.00	29.602 
22:20	17.8	9.3	17.8	76	11.5	6	13	248	0.00	29.602 
22:25	17.7	8.3	17.7	75	11.1	7	20	248	0.00	29.602 
22:30	17.5	8.0	17.5	75	11.0	7	17	270	0.00	29.601 
22:35	17.5	8.0	17.5	75	11.0	7	16	270	0.00	29.601 
22:40	17.5	7.2	17.5	76	11.3	8	23	270	0.00	29.601 
22:45	17.5	8.0	17.5	74	10.7	7	17	270	0.00	29.610 
22:50	17.5	10.0	17.5	75	11.0	5	18	248	0.00	29.610 
22:55	17.3	7.8	17.3	74	10.5	7	25	248	0.00	29.610 
23:00	17.3	9.8	17.3	73	10.2	5	13	270	0.00	29.625 
23:05	17.3	8.7	17.3	73	10.2	6	13	270	0.00	29.625 
23:10	17.3	8.7	17.3	74	10.5	6	15	270	0.00	29.625 
23:15	17.2	7.7	17.2	74	10.4	7	15	270	0.00	29.641 
23:20	17.0	7.4	17.0	73	9.9	7	20	270	0.00	29.641 
23:25	16.9	7.3	16.9	72	9.5	7	16	270	0.00	29.641 
23:30	16.5	6.0	16.5	75	10.0	8	18	270	0.00	29.649 
23:35	16.4	10.1	16.4	77	10.5	4	12	270	0.00	29.649 
23:40	16.1	6.3	16.1	79	10.8	7	14	248	0.00	29.649 
23:45	16.1	7.3	16.1	81	11.3	6	12	248	0.00	29.657 
23:50	16.1	9.7	16.1	82	11.6	4	7	248	0.00	29.657 
23:55	15.9	8.2	15.9	82	11.4	5	15	248	0.00	29.657 

CoCoRaHS
IN-AL-39
A2 Web Hosting
Creative Commons License
GoDaddy
search engine by freefind advanced

loaded 2018-11-15 18:17:25 • last modified 2010-11-18 10:43:29
Privacy PolicyDisclaimer
• wx.awcolley.com is powered by PmWiki v.2002016 •
• all content (unless otherwise noted) © 2018 A W Colley